Time;durP1;ratioP1;P1;durP2;ratioP2;P2;SDS_P1;SDS_P2;PMS_P1;PMS_P2;Temp;Humidity;BMP_temperature;BMP_pressure;BME280_temperature;BME280_humidity;BME280_pressure;Samples;Min_cycle;Max_cycle;Signal;HPM_P1;HPM_P2
2022/12/28 00:00:16;;;;;;;4.85;2.20;;;7.60;99.90;;;;;;2073867;28;20026;-69
2022/12/28 00:01:31;;;;;;;4.85;1.70;;;7.60;99.90;;;;;;2075719;28;20025;-69
2022/12/28 00:02:32;;;;;;;6.22;2.13;;;7.60;99.90;;;;;;2074525;28;20661;-69
2022/12/28 00:03:32;;;;;;;4.30;1.52;;;7.60;99.90;;;;;;2074728;28;20060;-69
2022/12/28 00:04:33;;;;;;;4.43;2.00;;;7.60;99.90;;;;;;2077455;28;20029;-69
2022/12/28 00:05:34;;;;;;;4.32;1.50;;;7.60;99.90;;;;;;2074659;28;20077;-69
2022/12/28 00:06:34;;;;;;;6.00;2.13;;;7.60;99.90;;;;;;2077520;28;20523;-69
2022/12/28 00:07:35;;;;;;;5.32;1.83;;;7.60;99.90;;;;;;2078488;28;20428;-69
2022/12/28 00:08:35;;;;;;;5.85;1.83;;;7.60;99.90;;;;;;2073761;28;20037;-69
2022/12/28 00:09:36;;;;;;;6.82;1.90;;;7.60;99.90;;;;;;2073248;28;20049;-69
2022/12/28 00:10:37;;;;;;;4.88;2.05;;;7.70;99.90;;;;;;2073349;28;20253;-69
2022/12/28 00:11:37;;;;;;;7.32;2.17;;;7.60;99.90;;;;;;2073364;28;20026;-69
2022/12/28 00:12:38;;;;;;;4.97;1.88;;;7.60;99.90;;;;;;2074848;28;20022;-69
2022/12/28 00:13:38;;;;;;;4.82;1.83;;;7.70;99.90;;;;;;2074565;28;20037;-69
2022/12/28 00:14:39;;;;;;;5.05;1.70;;;7.70;99.90;;;;;;2074867;28;20017;-69
2022/12/28 00:15:40;;;;;;;6.32;2.03;;;7.70;99.90;;;;;;2074353;28;20388;-69
2022/12/28 00:16:41;;;;;;;4.13;1.70;;;7.70;99.90;;;;;;2073733;28;20020;-69
2022/12/28 00:17:41;;;;;;;5.32;2.28;;;7.70;99.90;;;;;;2074304;28;20030;-69
2022/12/28 00:18:42;;;;;;;3.97;1.70;;;7.70;99.90;;;;;;2072709;28;20030;-69
2022/12/28 00:19:42;;;;;;;6.13;2.15;;;7.70;99.90;;;;;;2073304;28;20076;-69
2022/12/28 00:20:43;;;;;;;6.70;1.73;;;7.70;99.90;;;;;;2075867;28;20061;-69
2022/12/28 00:21:44;;;;;;;3.45;1.88;;;7.80;99.90;;;;;;2074645;28;20022;-69
2022/12/28 00:22:45;;;;;;;5.28;1.80;;;7.70;99.90;;;;;;2072311;28;20022;-69
2022/12/28 00:23:50;;;;;;;5.82;2.08;;;7.70;99.90;;;;;;2073958;28;20072;-69
2022/12/28 00:24:51;;;;;;;7.68;1.85;;;7.80;99.90;;;;;;2074734;28;20076;-69
2022/12/28 00:25:52;;;;;;;6.07;2.35;;;7.80;99.90;;;;;;2072249;28;20021;-69
2022/12/28 00:26:55;;;;;;;7.15;2.33;;;7.80;99.90;;;;;;2074987;28;20056;-69
2022/12/28 00:27:56;;;;;;;6.03;2.13;;;7.80;99.90;;;;;;2071720;28;20548;-69
2022/12/28 00:28:57;;;;;;;5.50;1.65;;;7.80;99.90;;;;;;2072992;28;20461;-69
2022/12/28 00:29:57;;;;;;;9.10;2.20;;;7.80;99.90;;;;;;2074244;28;20075;-69
2022/12/28 00:30:58;;;;;;;6.78;2.17;;;7.80;99.90;;;;;;2073721;28;20021;-69
2022/12/28 00:31:58;;;;;;;4.18;1.70;;;7.80;99.90;;;;;;2075585;28;20037;-69
2022/12/28 00:32:59;;;;;;;9.30;1.92;;;7.80;99.90;;;;;;2072483;28;20136;-69
2022/12/28 00:34:00;;;;;;;4.63;1.80;;;7.80;99.90;;;;;;2071909;28;20526;-69
2022/12/28 00:35:00;;;;;;;5.03;1.83;;;7.80;99.90;;;;;;2074608;28;20021;-69
2022/12/28 00:36:02;;;;;;;9.77;1.88;;;7.80;99.90;;;;;;2074376;28;20037;-69
2022/12/28 00:37:03;;;;;;;6.32;2.28;;;7.80;99.90;;;;;;2074251;28;20030;-69
2022/12/28 00:38:03;;;;;;;5.75;2.00;;;7.90;99.90;;;;;;2074501;28;20033;-69
2022/12/28 00:39:04;;;;;;;2.85;1.55;;;7.90;99.90;;;;;;2073017;28;20029;-69
2022/12/28 00:40:05;;;;;;;5.93;1.83;;;7.90;99.90;;;;;;2075190;28;20026;-69
2022/12/28 00:41:07;;;;;;;5.35;1.88;;;7.90;99.90;;;;;;2074447;28;20037;-69
2022/12/28 00:42:08;;;;;;;3.60;1.77;;;7.90;99.90;;;;;;2074910;28;20029;-69
2022/12/28 00:43:08;;;;;;;8.38;1.92;;;7.90;99.90;;;;;;2074577;28;20130;-69
2022/12/28 00:44:09;;;;;;;6.55;1.63;;;7.90;99.90;;;;;;2071880;28;20034;-69
2022/12/28 00:45:09;;;;;;;4.95;2.08;;;7.90;99.90;;;;;;2074011;28;20105;-69
2022/12/28 00:46:10;;;;;;;3.03;1.60;;;8.00;99.90;;;;;;2074744;28;20871;-69
2022/12/28 00:47:11;;;;;;;4.35;2.00;;;8.00;99.90;;;;;;2073413;28;20018;-69
2022/12/28 00:48:12;;;;;;;6.10;2.05;;;8.00;99.90;;;;;;2072615;28;20723;-69
2022/12/28 00:49:12;;;;;;;3.95;1.48;;;8.00;99.90;;;;;;2074210;28;20084;-69
2022/12/28 00:50:13;;;;;;;4.80;1.83;;;8.00;99.90;;;;;;2071954;28;20064;-69
2022/12/28 00:51:16;;;;;;;5.93;2.08;;;8.00;99.90;;;;;;2074687;28;20021;-69
2022/12/28 00:52:17;;;;;;;6.20;2.08;;;8.00;99.90;;;;;;2074299;28;20066;-69
2022/12/28 00:53:17;;;;;;;4.13;1.42;;;8.00;99.90;;;;;;2072711;28;20032;-69
2022/12/28 00:54:18;;;;;;;5.38;1.88;;;8.00;99.90;;;;;;2073457;28;20028;-69
2022/12/28 00:55:18;;;;;;;4.68;1.80;;;8.00;99.90;;;;;;2073377;28;20071;-70
2022/12/28 00:56:21;;;;;;;5.18;1.83;;;8.00;99.90;;;;;;2073811;28;20037;-69
2022/12/28 00:57:21;;;;;;;5.32;1.70;;;8.00;99.90;;;;;;2074858;28;20026;-69
2022/12/28 00:58:22;;;;;;;6.70;1.67;;;8.00;99.90;;;;;;2073399;28;20045;-69
2022/12/28 00:59:22;;;;;;;4.18;1.75;;;8.00;99.90;;;;;;2075528;28;20026;-69
2022/12/28 01:00:23;;;;;;;5.90;1.73;;;8.00;99.90;;;;;;2073308;28;20520;-69
2022/12/28 01:01:24;;;;;;;10.65;2.00;;;8.00;99.90;;;;;;2074111;28;20029;-69
2022/12/28 01:02:25;;;;;;;5.68;1.80;;;8.00;99.90;;;;;;2074640;28;20033;-69
2022/12/28 01:03:25;;;;;;;5.38;1.92;;;8.00;99.90;;;;;;2073834;28;20053;-69
2022/12/28 01:04:26;;;;;;;5.47;1.80;;;8.00;99.90;;;;;;2075774;28;20032;-69
2022/12/28 01:05:27;;;;;;;10.77;2.22;;;8.00;99.90;;;;;;2073178;28;20124;-69
2022/12/28 01:06:28;;;;;;;6.60;1.80;;;8.00;99.90;;;;;;2074898;28;20036;-69
2022/12/28 01:07:28;;;;;;;8.90;2.38;;;8.00;99.90;;;;;;2074854;28;20037;-69
2022/12/28 01:08:29;;;;;;;6.80;1.98;;;8.00;99.90;;;;;;2073844;28;20029;-69
2022/12/28 01:09:29;;;;;;;6.88;1.88;;;8.00;99.90;;;;;;2074144;28;20030;-69
2022/12/28 01:10:30;;;;;;;4.65;2.20;;;8.00;99.90;;;;;;2075222;28;20076;-69
2022/12/28 01:11:31;;;;;;;8.05;2.00;;;8.00;99.90;;;;;;2073874;28;20718;-69
2022/12/28 01:12:31;;;;;;;5.93;1.70;;;8.00;99.90;;;;;;2076085;28;20515;-69
2022/12/28 01:13:32;;;;;;;4.78;1.98;;;8.00;99.90;;;;;;2073583;28;20109;-69
2022/12/28 01:14:32;;;;;;;5.40;1.90;;;8.00;99.90;;;;;;2072836;28;20080;-69
2022/12/28 01:15:33;;;;;;;4.72;1.70;;;8.10;99.90;;;;;;2073023;28;20026;-69
2022/12/28 01:16:35;;;;;;;6.20;1.92;;;8.10;99.90;;;;;;2074393;28;20022;-69
2022/12/28 01:17:35;;;;;;;4.35;1.80;;;8.10;99.90;;;;;;2072068;28;20030;-69
2022/12/28 01:18:36;;;;;;;5.55;1.88;;;8.10;99.90;;;;;;2072787;28;21588;-69
2022/12/28 01:19:37;;;;;;;5.35;1.95;;;8.10;99.90;;;;;;2072479;28;20014;-69
2022/12/28 01:20:39;;;;;;;4.20;1.65;;;8.10;99.90;;;;;;2073131;28;20065;-69
2022/12/28 01:21:39;;;;;;;8.30;1.70;;;8.10;99.90;;;;;;2075042;28;20022;-69
2022/12/28 01:22:40;;;;;;;6.45;1.75;;;8.10;99.90;;;;;;2074332;28;20508;-69
2022/12/28 01:23:41;;;;;;;6.80;1.98;;;8.10;99.90;;;;;;2072769;28;20465;-69
2022/12/28 01:24:41;;;;;;;7.65;2.55;;;8.10;99.90;;;;;;2075681;28;20874;-69
2022/12/28 01:25:42;;;;;;;4.57;1.70;;;8.10;99.90;;;;;;2074552;28;20025;-69
2022/12/28 01:26:42;;;;;;;5.25;1.70;;;8.10;99.90;;;;;;2076139;28;20018;-69
2022/12/28 01:27:43;;;;;;;6.72;1.65;;;8.10;99.90;;;;;;2075063;28;20030;-69
2022/12/28 01:28:43;;;;;;;6.07;1.70;;;8.10;99.90;;;;;;2073531;28;20519;-69
2022/12/28 01:29:44;;;;;;;4.03;1.88;;;8.10;99.90;;;;;;2073077;28;20041;-69
2022/12/28 01:30:45;;;;;;;7.32;2.15;;;8.10;99.90;;;;;;2072627;28;20109;-69
2022/12/28 01:31:45;;;;;;;5.38;1.88;;;8.10;99.90;;;;;;2073793;28;20046;-69
2022/12/28 01:32:46;;;;;;;6.20;1.65;;;8.10;99.90;;;;;;2074021;28;20017;-69
2022/12/28 01:33:47;;;;;;;2.85;1.70;;;8.10;99.90;;;;;;2073618;28;20044;-69
2022/12/28 01:34:47;;;;;;;4.72;1.73;;;8.10;99.90;;;;;;2075370;28;20029;-69
2022/12/28 01:35:48;;;;;;;7.95;1.77;;;8.10;99.90;;;;;;2076054;28;20021;-69
2022/12/28 01:36:48;;;;;;;3.58;1.40;;;8.10;99.90;;;;;;2074888;28;20029;-69
2022/12/28 01:37:49;;;;;;;6.50;3.05;;;8.10;99.90;;;;;;2074173;28;20026;-69
2022/12/28 01:38:57;;;;;;;3.88;1.75;;;8.10;99.90;;;;;;2074281;28;20132;-69
2022/12/28 01:39:58;;;;;;;8.52;2.28;;;8.10;99.90;;;;;;2074119;28;20045;-69
2022/12/28 01:40:59;;;;;;;3.78;1.80;;;8.10;99.90;;;;;;2072567;28;20022;-69
2022/12/28 01:42:00;;;;;;;5.43;1.92;;;8.10;99.90;;;;;;2073402;28;20445;-69
2022/12/28 01:43:00;;;;;;;7.15;1.95;;;8.10;99.90;;;;;;2075478;28;20099;-69
2022/12/28 01:44:01;;;;;;;5.70;1.60;;;8.10;99.90;;;;;;2072237;28;20034;-69
2022/12/28 01:45:18;;;;;;;3.60;1.60;;;8.10;99.90;;;;;;2073048;28;20543;-69
2022/12/28 01:46:30;;;;;;;3.75;1.90;;;8.10;99.90;;;;;;2075616;28;20021;-69
2022/12/28 01:47:34;;;;;;;6.25;1.92;;;8.10;99.90;;;;;;2074465;28;20559;-69
2022/12/28 01:48:37;;;;;;;2.95;1.90;;;8.10;99.90;;;;;;2071498;28;20024;-69
2022/12/28 01:49:47;;;;;;;5.10;1.88;;;8.10;99.90;;;;;;2074827;28;20057;-69
2022/12/28 01:50:49;;;;;;;8.65;2.10;;;8.10;99.90;;;;;;2073212;28;20026;-69
2022/12/28 01:51:57;;;;;;;5.03;1.65;;;8.10;99.90;;;;;;2073498;28;20379;-69
2022/12/28 01:53:03;;;;;;;4.97;2.10;;;8.10;99.90;;;;;;2074749;28;20116;-69
2022/12/28 01:54:04;;;;;;;3.72;1.75;;;8.10;99.90;;;;;;2072689;28;20029;-69
2022/12/28 01:55:32;;;;;;;5.68;2.65;;;8.10;99.90;;;;;;2072799;28;20069;-69
2022/12/28 01:56:33;;;;;;;7.70;1.75;;;8.10;99.90;;;;;;2070784;28;20065;-70
2022/12/28 01:57:41;;;;;;;7.03;2.05;;;8.10;99.90;;;;;;2075036;28;20029;-69
2022/12/28 01:58:42;;;;;;;4.97;1.63;;;8.00;99.90;;;;;;2072935;28;20018;-69
2022/12/28 01:59:48;;;;;;;6.32;1.80;;;8.10;99.90;;;;;;2072391;28;20033;-69
2022/12/28 02:00:49;;;;;;;4.20;1.73;;;8.10;99.90;;;;;;2072207;28;20029;-69
2022/12/28 02:01:50;;;;;;;6.30;1.88;;;8.10;99.90;;;;;;2074254;28;20053;-69
2022/12/28 02:02:58;;;;;;;7.05;1.88;;;8.10;99.90;;;;;;2073630;28;20036;-69
2022/12/28 02:03:58;;;;;;;3.00;1.38;;;8.10;99.90;;;;;;2073258;28;20037;-70
2022/12/28 02:04:59;;;;;;;5.20;2.30;;;8.10;99.90;;;;;;2074841;28;20038;-69
2022/12/28 02:06:05;;;;;;;5.15;1.55;;;8.10;99.90;;;;;;2072890;28;20038;-69
2022/12/28 02:07:05;;;;;;;4.82;1.88;;;8.10;99.90;;;;;;2073750;28;20551;-70
2022/12/28 02:08:13;;;;;;;6.30;1.50;;;8.10;99.90;;;;;;2072667;28;20474;-69
2022/12/28 02:09:37;;;;;;;4.47;2.08;;;8.10;99.90;;;;;;2073096;28;20031;-70
2022/12/28 02:10:39;;;;;;;4.80;1.67;;;8.10;99.90;;;;;;2072712;28;20553;-69
2022/12/28 02:11:40;;;;;;;5.97;1.98;;;8.10;99.90;;;;;;2074483;28;20014;-69
2022/12/28 02:12:41;;;;;;;4.95;1.58;;;8.10;99.90;;;;;;2073559;28;20108;-69
2022/12/28 02:13:47;;;;;;;5.75;1.58;;;8.10;99.90;;;;;;2072630;28;20048;-69
2022/12/28 02:14:48;;;;;;;3.63;2.33;;;8.10;99.90;;;;;;2074969;28;20044;-70
2022/12/28 02:15:49;;;;;;;5.82;2.63;;;8.10;99.90;;;;;;2074476;28;20022;-70
2022/12/28 02:16:51;;;;;;;5.97;1.90;;;8.10;99.90;;;;;;2074802;28;20025;-70
2022/12/28 02:17:51;;;;;;;6.28;1.80;;;8.10;99.90;;;;;;2071824;28;20018;-69
2022/12/28 02:18:52;;;;;;;4.93;1.80;;;8.10;99.90;;;;;;2071520;28;20038;-69
2022/12/28 02:19:53;;;;;;;3.58;1.92;;;8.10;99.90;;;;;;2072658;28;20033;-69
2022/12/28 02:21:13;;;;;;;4.43;1.58;;;8.20;99.90;;;;;;2074089;28;20104;-69
2022/12/28 02:22:35;;;;;;;4.40;1.80;;;8.10;99.90;;;;;;2073944;28;20040;-69
2022/12/28 02:24:00;;;;;;;3.47;1.80;;;8.10;99.90;;;;;;2073193;28;20556;-69
2022/12/28 02:25:50;;;;;;;5.50;1.92;;;8.10;99.90;;;;;;2074522;28;20034;-69
2022/12/28 02:27:17;;;;;;;3.47;1.50;;;8.10;99.90;;;;;;2075045;28;20057;-69
2022/12/28 02:28:48;;;;;;;2.92;1.63;;;8.10;99.90;;;;;;2074162;28;20998;-69
2022/12/28 02:29:57;;;;;;;4.10;1.77;;;8.10;99.90;;;;;;2073700;28;20136;-69
2022/12/28 02:31:11;;;;;;;9.10;1.93;;;8.10;99.90;;;;;;2071501;28;20155;-70
2022/12/28 02:32:34;;;;;;;5.78;2.00;;;8.10;99.90;;;;;;2073793;28;20280;-70
2022/12/28 02:33:43;;;;;;;3.53;1.60;;;8.10;99.90;;;;;;2072920;28;20477;-69
2022/12/28 02:35:33;;;;;;;3.88;1.70;;;8.10;99.90;;;;;;2073789;28;20523;-69
2022/12/28 02:36:39;;;;;;;4.32;1.77;;;8.10;99.90;;;;;;2064178;28;20042;-69
2022/12/28 02:38:09;;;;;;;4.85;2.05;;;8.10;99.90;;;;;;2075992;28;20509;-69
2022/12/28 02:39:22;;;;;;;2.90;1.65;;;8.20;99.90;;;;;;2072246;28;20029;-69
2022/12/28 02:40:29;;;;;;;3.28;1.77;;;8.20;99.90;;;;;;2075775;28;20022;-70
2022/12/28 02:41:30;;;;;;;4.47;1.50;;;8.20;99.90;;;;;;2073363;28;20025;-69
2022/12/28 02:42:33;;;;;;;3.83;1.52;;;8.20;99.90;;;;;;2072887;28;20128;-69
2022/12/28 02:43:34;;;;;;;6.05;1.55;;;8.20;99.90;;;;;;2074903;28;20052;-69
2022/12/28 02:50:07;;;;;;;5.35;2.25;;;8.20;99.90;;;;;;2074366;28;20030;-69
2022/12/28 02:51:30;;;;;;;5.75;1.85;;;8.20;99.90;;;;;;2071038;28;20030;-70
2022/12/28 02:53:05;;;;;;;2.60;1.63;;;8.30;99.90;;;;;;2074039;28;20026;-70
2022/12/28 02:56:07;;;;;;;4.22;1.77;;;8.30;99.90;;;;;;2073076;28;20025;-70
2022/12/28 02:57:17;;;;;;;1.85;1.40;;;8.30;99.90;;;;;;2072866;28;20682;-70
2022/12/28 02:58:27;;;;;;;3.15;1.45;;;8.30;99.90;;;;;;2074116;28;20029;-70
2022/12/28 02:59:47;;;;;;;4.57;2.22;;;8.30;99.90;;;;;;2072640;28;20025;-69
2022/12/28 03:01:05;;;;;;;3.35;1.83;;;8.30;99.90;;;;;;2072663;28;20125;-69
2022/12/28 03:02:23;;;;;;;2.97;1.40;;;8.40;99.90;;;;;;2073911;28;20085;-69
2022/12/28 03:03:47;;;;;;;5.78;1.60;;;8.40;99.90;;;;;;2072445;28;20034;-69
2022/12/28 03:05:04;;;;;;;4.80;1.75;;;8.40;99.90;;;;;;2072571;28;20033;-69
2022/12/28 03:08:18;;;;;;;3.20;1.60;;;8.40;99.90;;;;;;2075768;28;20033;-69
2022/12/28 03:09:23;;;;;;;;;;;8.40;99.90;;;;;;2076385;28;20034;-69
2022/12/28 03:10:45;;;;;;;6.85;2.20;;;8.40;99.90;;;;;;2074088;28;20395;-69
2022/12/28 03:12:11;;;;;;;3.30;1.58;;;8.40;99.90;;;;;;2074442;28;20033;-69
2022/12/28 03:14:49;;;;;;;2.88;1.50;;;8.40;99.90;;;;;;2075127;28;20105;-69
2022/12/28 03:15:49;;;;;;;4.32;1.95;;;8.40;99.90;;;;;;2076454;28;20129;-69
2022/12/28 03:32:01;;;;;;;2.88;1.45;;;8.50;99.90;;;;;;2074775;28;20037;-69
2022/12/28 03:33:02;;;;;;;3.42;1.92;;;8.50;99.90;;;;;;2074344;28;20034;-69
2022/12/28 03:34:07;;;;;;;3.28;2.00;;;8.60;99.90;;;;;;2073573;28;20030;-69
2022/12/28 03:35:08;;;;;;;4.95;1.92;;;8.60;99.90;;;;;;2073633;28;20030;-69
2022/12/28 03:36:29;;;;;;;5.55;2.28;;;8.60;99.90;;;;;;2075824;28;20050;-69
2022/12/28 03:37:39;;;;;;;3.65;1.80;;;8.60;99.90;;;;;;2075027;28;20499;-69
2022/12/28 03:38:49;;;;;;;2.95;1.65;;;8.60;99.90;;;;;;2074995;28;20186;-70
2022/12/28 03:39:56;;;;;;;4.40;1.90;;;8.60;99.90;;;;;;2074622;28;20026;-69
2022/12/28 03:41:12;;;;;;;3.88;1.70;;;8.60;99.90;;;;;;2077447;28;20058;-69
2022/12/28 03:43:52;;;;;;;3.45;1.58;;;8.60;99.90;;;;;;2073546;28;20030;-69
2022/12/28 03:45:01;;;;;;;5.07;2.20;;;8.60;99.90;;;;;;2076521;28;20041;-69
2022/12/28 03:46:20;;;;;;;4.40;1.88;;;8.60;99.90;;;;;;2076075;28;20021;-69
2022/12/28 03:47:23;;;;;;;3.67;1.73;;;8.50;99.90;;;;;;2075426;28;20041;-69
2022/12/28 03:48:24;;;;;;;5.57;2.83;;;8.50;99.90;;;;;;2075110;28;20109;-70
2022/12/28 03:49:27;;;;;;;6.47;1.90;;;8.60;99.90;;;;;;2074396;28;20040;-69
2022/12/28 03:50:28;;;;;;;7.82;2.45;;;8.60;99.90;;;;;;2073995;28;20025;-69
2022/12/28 03:51:30;;;;;;;6.05;2.30;;;8.60;99.90;;;;;;2075765;28;20061;-69
2022/12/28 03:52:32;;;;;;;3.80;1.95;;;8.60;99.90;;;;;;2075849;28;20401;-69
2022/12/28 03:53:42;;;;;;;3.47;1.83;;;8.60;99.90;;;;;;2074415;28;20029;-69
2022/12/28 03:54:43;;;;;;;;;;;8.60;99.90;;;;;;2075118;28;20017;-69
2022/12/28 03:55:43;;;;;;;5.22;2.03;;;8.50;99.90;;;;;;2074463;28;20361;-70
2022/12/28 03:56:46;;;;;;;2.80;2.03;;;8.60;99.90;;;;;;2076315;28;20435;-70
2022/12/28 03:57:46;;;;;;;6.68;2.55;;;8.60;99.90;;;;;;2074431;28;20076;-70
2022/12/28 03:58:47;;;;;;;3.67;1.98;;;8.60;99.90;;;;;;2075050;28;20740;-69
2022/12/28 03:59:48;;;;;;;3.22;1.80;;;8.60;99.90;;;;;;2075354;28;20068;-69
2022/12/28 04:00:48;;;;;;;3.47;1.98;;;8.60;99.90;;;;;;2074042;28;20026;-69
2022/12/28 04:01:49;;;;;;;5.47;2.35;;;8.60;99.90;;;;;;2074735;28;20560;-69
2022/12/28 04:02:49;;;;;;;6.07;2.42;;;8.60;99.90;;;;;;2072977;28;20884;-69
2022/12/28 04:03:50;;;;;;;3.03;1.85;;;8.60;99.90;;;;;;2073327;28;20537;-69
2022/12/28 04:04:50;;;;;;;4.78;2.17;;;8.60;99.90;;;;;;2075482;28;20682;-69
2022/12/28 04:05:51;;;;;;;2.92;2.30;;;8.60;99.90;;;;;;2074868;28;20026;-69
2022/12/28 04:06:51;;;;;;;2.88;1.75;;;8.60;99.90;;;;;;2074222;28;20108;-69
2022/12/28 04:07:52;;;;;;;2.85;2.00;;;8.60;99.90;;;;;;2074938;28;20528;-69
2022/12/28 04:08:53;;;;;;;5.40;1.80;;;8.60;99.90;;;;;;2073908;28;20644;-70
2022/12/28 04:09:53;;;;;;;3.30;1.83;;;8.60;99.90;;;;;;2073920;28;20420;-69
2022/12/28 04:10:54;;;;;;;3.10;1.60;;;8.60;99.90;;;;;;2074358;28;20485;-69
2022/12/28 04:11:54;;;;;;;6.20;2.00;;;8.60;99.90;;;;;;2076299;28;20025;-69
2022/12/28 04:12:55;;;;;;;3.30;1.77;;;8.60;99.90;;;;;;2075598;28;20618;-69
2022/12/28 04:13:56;;;;;;;6.18;2.20;;;8.60;99.90;;;;;;2072750;28;20446;-70
2022/12/28 04:14:56;;;;;;;4.45;2.13;;;8.60;99.90;;;;;;2075471;28;20030;-69
2022/12/28 04:16:06;;;;;;;3.30;1.95;;;8.60;99.90;;;;;;2075203;28;20034;-69
2022/12/28 04:17:07;;;;;;;2.85;1.52;;;8.60;99.90;;;;;;2073374;28;20025;-69
2022/12/28 04:18:07;;;;;;;5.05;1.88;;;8.60;99.90;;;;;;2075906;28;20083;-69
2022/12/28 04:19:09;;;;;;;3.40;1.90;;;8.60;99.90;;;;;;2074440;28;20018;-69
2022/12/28 04:20:09;;;;;;;4.18;1.83;;;8.70;99.90;;;;;;2072310;28;20014;-69
2022/12/28 04:21:12;;;;;;;4.55;1.58;;;8.60;99.90;;;;;;2074297;28;20025;-70
2022/12/28 04:22:12;;;;;;;3.92;1.80;;;8.60;99.90;;;;;;2073004;28;20107;-69
2022/12/28 04:23:13;;;;;;;3.67;1.65;;;8.70;99.90;;;;;;2074662;28;20084;-69
2022/12/28 04:24:13;;;;;;;5.55;1.95;;;8.70;99.90;;;;;;2074592;28;20038;-69
2022/12/28 04:25:14;;;;;;;2.85;1.98;;;8.70;99.90;;;;;;2074523;28;20026;-70
2022/12/28 04:26:16;;;;;;;3.00;1.75;;;8.70;99.90;;;;;;2074448;28;20096;-70
2022/12/28 04:27:17;;;;;;;2.63;1.75;;;8.70;99.90;;;;;;2076907;28;20111;-69
2022/12/28 04:28:17;;;;;;;3.60;1.55;;;8.70;99.90;;;;;;2074793;28;20100;-69
2022/12/28 04:29:18;;;;;;;4.18;1.98;;;8.70;99.90;;;;;;2074713;28;20033;-69
2022/12/28 04:30:18;;;;;;;2.33;1.40;;;8.70;99.90;;;;;;2074358;28;20041;-69
2022/12/28 04:31:19;;;;;;;4.70;1.90;;;8.70;99.90;;;;;;2072839;28;20130;-69
2022/12/28 04:32:20;;;;;;;3.65;2.05;;;8.70;99.90;;;;;;2076253;28;20135;-69
2022/12/28 04:33:20;;;;;;;4.63;2.05;;;8.70;99.90;;;;;;2073581;28;20021;-69
2022/12/28 04:34:21;;;;;;;5.10;2.00;;;8.70;99.90;;;;;;2073560;28;20026;-70
2022/12/28 04:35:21;;;;;;;5.05;2.55;;;8.70;99.90;;;;;;2074684;28;20022;-70
2022/12/28 04:36:22;;;;;;;6.05;2.03;;;8.70;99.90;;;;;;2073659;28;20057;-69
2022/12/28 04:37:22;;;;;;;3.38;1.90;;;8.70;99.90;;;;;;2076505;28;20029;-69
2022/12/28 04:38:23;;;;;;;3.15;2.03;;;8.70;99.90;;;;;;2074152;28;20044;-69
2022/12/28 04:39:23;;;;;;;3.88;1.83;;;8.70;99.90;;;;;;2073403;28;20112;-69
2022/12/28 04:40:24;;;;;;;3.95;2.20;;;8.70;99.90;;;;;;2075796;28;20021;-69
2022/12/28 04:41:24;;;;;;;2.72;1.52;;;8.70;99.90;;;;;;2073039;28;20036;-69
2022/12/28 04:42:25;;;;;;;2.25;1.77;;;8.80;99.90;;;;;;2074720;28;20037;-69
2022/12/28 04:43:25;;;;;;;3.28;2.10;;;8.80;99.90;;;;;;2073872;28;20044;-69
2022/12/28 04:44:26;;;;;;;4.10;2.13;;;8.70;99.90;;;;;;2074149;28;20382;-70
2022/12/28 04:45:26;;;;;;;3.67;1.67;;;8.80;99.90;;;;;;2074703;28;20021;-70
2022/12/28 04:46:27;;;;;;;4.57;2.00;;;8.70;99.90;;;;;;2072768;28;20113;-70
2022/12/28 04:47:28;;;;;;;3.55;1.95;;;8.80;99.90;;;;;;2075174;28;20034;-70
2022/12/28 04:48:28;;;;;;;6.07;2.10;;;8.80;99.90;;;;;;2074405;28;20069;-70
2022/12/28 04:49:29;;;;;;;2.70;1.70;;;8.80;99.90;;;;;;2072916;28;20045;-70
2022/12/28 04:50:29;;;;;;;9.13;2.25;;;8.80;99.90;;;;;;2072533;28;20474;-69
2022/12/28 04:51:30;;;;;;;5.78;1.90;;;8.80;99.90;;;;;;2074951;28;20061;-70
2022/12/28 04:52:32;;;;;;;5.53;2.20;;;8.80;99.90;;;;;;2074496;28;20036;-70
2022/12/28 04:53:37;;;;;;;4.25;1.52;;;8.80;99.90;;;;;;2074612;28;20736;-70
2022/12/28 04:54:38;;;;;;;5.22;2.50;;;8.80;99.90;;;;;;2073389;28;20436;-69
2022/12/28 04:55:38;;;;;;;4.05;1.83;;;8.80;99.90;;;;;;2076366;28;20103;-70
2022/12/28 04:56:39;;;;;;;5.03;2.17;;;8.80;99.90;;;;;;2078091;28;20117;-70
2022/12/28 04:57:42;;;;;;;10.52;2.47;;;8.80;99.90;;;;;;2076561;28;20026;-70
2022/12/28 04:58:45;;;;;;;5.70;2.28;;;8.80;99.90;;;;;;2076404;28;20428;-70
2022/12/28 04:59:46;;;;;;;4.45;2.30;;;8.80;99.90;;;;;;2074268;28;20163;-69
2022/12/28 05:00:46;;;;;;;3.05;2.03;;;8.80;99.90;;;;;;2073640;28;20421;-70
2022/12/28 05:01:47;;;;;;;4.07;2.22;;;8.80;99.90;;;;;;2073715;28;20469;-70
2022/12/28 05:02:47;;;;;;;3.75;2.08;;;8.80;99.90;;;;;;2073449;28;20033;-70
2022/12/28 05:03:48;;;;;;;3.45;2.10;;;8.80;99.90;;;;;;2069760;28;20021;-70
2022/12/28 05:04:49;;;;;;;5.85;2.70;;;8.80;99.90;;;;;;2076761;28;20034;-70
2022/12/28 05:05:49;;;;;;;3.47;2.50;;;8.80;99.90;;;;;;2073523;28;20033;-70
2022/12/28 05:06:50;;;;;;;5.63;2.38;;;8.80;99.90;;;;;;2074155;28;20036;-70
2022/12/28 05:07:50;;;;;;;3.38;1.98;;;8.80;99.90;;;;;;2073267;28;20030;-70
2022/12/28 05:08:51;;;;;;;3.80;2.70;;;8.80;99.90;;;;;;2073470;28;20422;-69
2022/12/28 05:09:51;;;;;;;5.47;2.10;;;8.80;99.90;;;;;;2073853;28;20030;-70
2022/12/28 05:10:52;;;;;;;5.55;2.25;;;8.80;99.90;;;;;;2073000;28;20034;-70
2022/12/28 05:11:52;;;;;;;5.80;2.25;;;8.80;99.90;;;;;;2074312;28;20121;-70
2022/12/28 05:12:54;;;;;;;3.75;1.88;;;8.80;99.90;;;;;;2074192;28;20028;-70
2022/12/28 05:13:55;;;;;;;4.60;2.10;;;8.80;99.90;;;;;;2074484;28;20025;-70
2022/12/28 05:14:56;;;;;;;5.55;2.33;;;8.80;99.90;;;;;;2074548;28;20444;-70
2022/12/28 05:16:05;;;;;;;4.25;2.45;;;8.80;99.90;;;;;;2073596;28;20026;-70
2022/12/28 05:17:05;;;;;;;4.32;2.08;;;8.80;99.90;;;;;;2074118;28;20461;-70
2022/12/28 05:18:06;;;;;;;3.30;2.00;;;8.80;99.90;;;;;;2074368;28;20540;-70
2022/12/28 05:19:06;;;;;;;3.88;1.90;;;8.80;99.90;;;;;;2073937;28;20465;-70
2022/12/28 05:20:07;;;;;;;4.05;2.17;;;8.80;99.90;;;;;;2073497;28;20654;-70
2022/12/28 05:21:15;;;;;;;3.20;1.65;;;8.80;99.90;;;;;;2073325;28;20041;-70
2022/12/28 05:22:16;;;;;;;3.42;1.85;;;8.80;99.90;;;;;;2072490;28;20018;-70
2022/12/28 05:23:17;;;;;;;3.35;2.17;;;8.80;99.90;;;;;;2074627;28;20029;-70
2022/12/28 05:24:19;;;;;;;3.40;2.05;;;8.80;99.90;;;;;;2073073;28;20025;-70
2022/12/28 05:25:19;;;;;;;3.85;2.10;;;8.80;99.90;;;;;;2074216;28;20033;-70
2022/12/28 05:26:22;;;;;;;4.50;2.15;;;8.80;99.90;;;;;;2072150;28;20044;-70
2022/12/28 05:27:23;;;;;;;5.28;2.20;;;8.80;99.90;;;;;;2073649;28;20231;-70
2022/12/28 05:28:25;;;;;;;3.88;2.30;;;8.80;99.90;;;;;;2074625;28;20054;-70
2022/12/28 05:29:25;;;;;;;3.30;2.20;;;8.80;99.90;;;;;;2073682;28;20040;-70
2022/12/28 05:30:26;;;;;;;3.05;2.13;;;8.80;99.90;;;;;;2071893;28;20053;-70
2022/12/28 05:31:27;;;;;;;3.83;2.00;;;8.80;99.90;;;;;;2074494;28;20040;-70
2022/12/28 05:32:27;;;;;;;3.15;2.17;;;8.80;99.90;;;;;;2072429;28;20505;-70
2022/12/28 05:33:29;;;;;;;4.13;1.90;;;8.80;99.90;;;;;;2073681;28;20037;-70
2022/12/28 05:34:29;;;;;;;4.35;2.10;;;8.80;99.90;;;;;;2073292;28;20029;-70
2022/12/28 05:35:30;;;;;;;4.65;2.22;;;8.80;99.90;;;;;;2074393;28;20097;-70
2022/12/28 05:36:32;;;;;;;4.22;1.83;;;8.80;99.90;;;;;;2073709;28;20026;-70
2022/12/28 05:37:33;;;;;;;3.40;2.30;;;8.80;99.90;;;;;;2073190;28;20018;-70
2022/12/28 05:38:34;;;;;;;4.38;1.80;;;8.80;99.90;;;;;;2073375;28;20036;-70
2022/12/28 05:39:34;;;;;;;3.92;2.03;;;8.80;99.90;;;;;;2072454;28;20458;-70
2022/12/28 05:40:35;;;;;;;6.50;2.97;;;8.80;99.90;;;;;;2074218;28;20088;-70
2022/12/28 05:41:35;;;;;;;2.92;2.00;;;8.80;99.90;;;;;;2074872;28;20017;-70
2022/12/28 05:42:36;;;;;;;4.57;2.60;;;8.80;99.90;;;;;;2074376;28;20018;-70
2022/12/28 05:43:36;;;;;;;3.38;1.90;;;8.80;99.90;;;;;;2072551;28;20037;-70
2022/12/28 05:44:37;;;;;;;3.70;2.03;;;8.80;99.90;;;;;;2076380;28;20338;-70
2022/12/28 05:45:37;;;;;;;2.95;1.60;;;8.90;99.90;;;;;;2075140;28;20037;-70
2022/12/28 05:46:38;;;;;;;7.35;2.08;;;8.90;99.90;;;;;;2074353;28;20033;-70
2022/12/28 05:47:38;;;;;;;6.82;2.08;;;8.80;99.90;;;;;;2073201;28;20030;-70
2022/12/28 05:48:40;;;;;;;3.72;2.08;;;8.90;99.90;;;;;;2075809;28;20021;-70
2022/12/28 05:49:41;;;;;;;3.70;2.17;;;8.90;99.90;;;;;;2073123;28;20036;-70
2022/12/28 05:50:41;;;;;;;3.08;2.30;;;8.90;99.90;;;;;;2074219;28;20026;-70
2022/12/28 05:51:42;;;;;;;4.30;2.13;;;8.90;99.90;;;;;;2072807;28;20646;-70
2022/12/28 05:52:42;;;;;;;3.88;2.22;;;8.90;99.90;;;;;;2074414;28;20021;-70
2022/12/28 05:53:43;;;;;;;3.85;2.05;;;8.90;99.90;;;;;;2076238;28;20044;-70
2022/12/28 05:54:44;;;;;;;5.30;2.35;;;8.90;99.90;;;;;;2072437;28;20203;-70
2022/12/28 05:55:44;;;;;;;2.75;1.88;;;8.90;99.90;;;;;;2073610;28;20021;-70
2022/12/28 05:56:48;;;;;;;3.42;2.05;;;8.90;99.90;;;;;;2074483;28;20022;-70
2022/12/28 05:57:49;;;;;;;3.22;2.05;;;8.90;99.90;;;;;;2073788;28;20018;-70
2022/12/28 05:58:57;;;;;;;2.90;2.15;;;8.90;99.90;;;;;;2075336;28;20022;-70
2022/12/28 05:59:58;;;;;;;4.88;2.00;;;8.90;99.90;;;;;;2073882;28;20038;-70
2022/12/28 06:01:11;;;;;;;3.42;2.10;;;8.90;99.90;;;;;;2073422;28;20371;-70
2022/12/28 06:02:11;;;;;;;2.58;1.95;;;8.90;99.90;;;;;;2073379;28;20026;-70
2022/12/28 06:03:12;;;;;;;2.13;1.90;;;8.90;99.90;;;;;;2071609;28;20064;-70